sensor_id;sensor_type;location;lat;lon;timestamp;P1;durP1;ratioP1;P2;durP2;ratioP2
73678;SDS011;61978;52.742;16.962;2022-09-25T00:00:49;31.07;;;21.27;;
73678;SDS011;61978;52.742;16.962;2022-09-25T00:03:19;29.87;;;19.30;;
73678;SDS011;61978;52.742;16.962;2022-09-25T00:05:51;33.83;;;21.83;;
73678;SDS011;61978;52.742;16.962;2022-09-25T00:08:18;38.35;;;24.40;;
73678;SDS011;61978;52.742;16.962;2022-09-25T00:10:49;35.63;;;24.23;;
73678;SDS011;61978;52.742;16.962;2022-09-25T00:13:18;29.67;;;20.95;;
73678;SDS011;61978;52.742;16.962;2022-09-25T00:15:46;33.05;;;21.62;;
73678;SDS011;61978;52.742;16.962;2022-09-25T00:18:15;33.10;;;20.68;;
73678;SDS011;61978;52.742;16.962;2022-09-25T00:20:44;36.05;;;21.87;;
73678;SDS011;61978;52.742;16.962;2022-09-25T00:23:11;40.30;;;22.10;;
73678;SDS011;61978;52.742;16.962;2022-09-25T00:25:38;29.10;;;21.37;;
73678;SDS011;61978;52.742;16.962;2022-09-25T00:28:06;32.08;;;21.05;;
73678;SDS011;61978;52.742;16.962;2022-09-25T00:30:32;31.62;;;22.75;;
73678;SDS011;61978;52.742;16.962;2022-09-25T00:32:59;34.25;;;21.93;;
73678;SDS011;61978;52.742;16.962;2022-09-25T00:35:25;29.98;;;21.10;;
73678;SDS011;61978;52.742;16.962;2022-09-25T00:37:51;37.95;;;23.38;;
73678;SDS011;61978;52.742;16.962;2022-09-25T00:40:18;30.75;;;22.00;;
73678;SDS011;61978;52.742;16.962;2022-09-25T00:42:45;31.77;;;22.13;;
73678;SDS011;61978;52.742;16.962;2022-09-25T00:45:16;33.18;;;21.97;;
73678;SDS011;61978;52.742;16.962;2022-09-25T00:47:53;32.08;;;23.18;;
73678;SDS011;61978;52.742;16.962;2022-09-25T00:50:28;32.42;;;22.22;;
73678;SDS011;61978;52.742;16.962;2022-09-25T00:53:07;41.10;;;23.75;;
73678;SDS011;61978;52.742;16.962;2022-09-25T00:55:37;33.55;;;23.07;;
73678;SDS011;61978;52.742;16.962;2022-09-25T00:58:07;35.00;;;23.90;;
73678;SDS011;61978;52.742;16.962;2022-09-25T01:00:35;36.45;;;26.70;;
73678;SDS011;61978;52.742;16.962;2022-09-25T01:03:02;38.23;;;26.12;;
73678;SDS011;61978;52.742;16.962;2022-09-25T01:05:30;42.98;;;26.62;;
73678;SDS011;61978;52.742;16.962;2022-09-25T01:08:00;40.65;;;29.82;;
73678;SDS011;61978;52.742;16.962;2022-09-25T01:10:28;45.15;;;30.25;;
73678;SDS011;61978;52.742;16.962;2022-09-25T01:12:55;41.58;;;28.15;;
73678;SDS011;61978;52.742;16.962;2022-09-25T01:15:35;38.10;;;26.97;;
73678;SDS011;61978;52.742;16.962;2022-09-25T01:20:57;38.33;;;26.12;;
73678;SDS011;61978;52.742;16.962;2022-09-25T01:26:09;40.63;;;29.10;;
73678;SDS011;61978;52.742;16.962;2022-09-25T01:29:00;40.88;;;27.35;;
73678;SDS011;61978;52.742;16.962;2022-09-25T01:37:02;38.45;;;24.87;;
73678;SDS011;61978;52.742;16.962;2022-09-25T01:39:30;38.28;;;25.02;;
73678;SDS011;61978;52.742;16.962;2022-09-25T01:44:38;42.17;;;27.13;;
73678;SDS011;61978;52.742;16.962;2022-09-25T01:47:14;37.45;;;23.30;;
73678;SDS011;61978;52.742;16.962;2022-09-25T01:49:45;33.78;;;22.50;;
73678;SDS011;61978;52.742;16.962;2022-09-25T01:52:17;32.28;;;23.27;;
73678;SDS011;61978;52.742;16.962;2022-09-25T01:54:48;36.28;;;25.27;;
73678;SDS011;61978;52.742;16.962;2022-09-25T02:00:07;35.52;;;26.27;;
73678;SDS011;61978;52.742;16.962;2022-09-25T02:02:41;35.28;;;25.75;;
73678;SDS011;61978;52.742;16.962;2022-09-25T02:05:12;36.88;;;24.47;;
73678;SDS011;61978;52.742;16.962;2022-09-25T02:07:44;33.18;;;22.85;;
73678;SDS011;61978;52.742;16.962;2022-09-25T02:10:17;37.30;;;25.00;;
73678;SDS011;61978;52.742;16.962;2022-09-25T02:12:46;37.15;;;25.23;;
73678;SDS011;61978;52.742;16.962;2022-09-25T02:15:20;37.28;;;24.52;;
73678;SDS011;61978;52.742;16.962;2022-09-25T02:18:01;36.08;;;23.67;;
73678;SDS011;61978;52.742;16.962;2022-09-25T02:20:49;41.23;;;25.30;;
73678;SDS011;61978;52.742;16.962;2022-09-25T02:26:03;34.53;;;25.50;;
73678;SDS011;61978;52.742;16.962;2022-09-25T02:28:40;36.35;;;23.52;;
73678;SDS011;61978;52.742;16.962;2022-09-25T02:31:09;38.67;;;24.50;;
73678;SDS011;61978;52.742;16.962;2022-09-25T02:33:41;36.23;;;24.57;;
73678;SDS011;61978;52.742;16.962;2022-09-25T02:36:15;33.23;;;24.35;;
73678;SDS011;61978;52.742;16.962;2022-09-25T02:38:44;34.38;;;25.08;;
73678;SDS011;61978;52.742;16.962;2022-09-25T02:41:17;30.97;;;23.95;;
73678;SDS011;61978;52.742;16.962;2022-09-25T02:44:04;35.13;;;24.90;;
73678;SDS011;61978;52.742;16.962;2022-09-25T02:54:54;37.25;;;25.68;;
73678;SDS011;61978;52.742;16.962;2022-09-25T02:57:42;37.78;;;25.65;;
73678;SDS011;61978;52.742;16.962;2022-09-25T03:00:19;34.50;;;25.25;;
73678;SDS011;61978;52.742;16.962;2022-09-25T03:02:49;38.90;;;26.42;;
73678;SDS011;61978;52.742;16.962;2022-09-25T03:05:18;44.45;;;29.77;;
73678;SDS011;61978;52.742;16.962;2022-09-25T03:07:45;40.83;;;29.12;;
73678;SDS011;61978;52.742;16.962;2022-09-25T03:10:31;35.85;;;25.43;;
73678;SDS011;61978;52.742;16.962;2022-09-25T03:13:20;35.17;;;23.70;;
73678;SDS011;61978;52.742;16.962;2022-09-25T03:15:41;35.45;;;24.65;;
73678;SDS011;61978;52.742;16.962;2022-09-25T03:18:11;38.20;;;26.00;;
73678;SDS011;61978;52.742;16.962;2022-09-25T03:20:40;37.53;;;25.88;;
73678;SDS011;61978;52.742;16.962;2022-09-25T03:23:07;36.25;;;25.37;;
73678;SDS011;61978;52.742;16.962;2022-09-25T03:25:36;38.63;;;27.50;;
73678;SDS011;61978;52.742;16.962;2022-09-25T03:28:07;37.90;;;24.77;;
73678;SDS011;61978;52.742;16.962;2022-09-25T03:30:36;33.28;;;24.35;;
73678;SDS011;61978;52.742;16.962;2022-09-25T03:33:05;38.33;;;25.12;;
73678;SDS011;61978;52.742;16.962;2022-09-25T03:35:36;34.65;;;23.25;;
73678;SDS011;61978;52.742;16.962;2022-09-25T03:38:04;33.20;;;24.67;;
73678;SDS011;61978;52.742;16.962;2022-09-25T03:40:35;32.83;;;23.25;;
73678;SDS011;61978;52.742;16.962;2022-09-25T03:43:01;43.05;;;27.15;;
73678;SDS011;61978;52.742;16.962;2022-09-25T03:45:28;34.23;;;22.98;;
73678;SDS011;61978;52.742;16.962;2022-09-25T03:47:54;38.58;;;25.35;;
73678;SDS011;61978;52.742;16.962;2022-09-25T03:50:21;46.73;;;27.42;;
73678;SDS011;61978;52.742;16.962;2022-09-25T03:52:48;46.02;;;26.95;;
73678;SDS011;61978;52.742;16.962;2022-09-25T03:55:14;45.30;;;27.77;;
73678;SDS011;61978;52.742;16.962;2022-09-25T03:57:41;40.23;;;27.50;;
73678;SDS011;61978;52.742;16.962;2022-09-25T04:00:08;39.03;;;26.90;;
73678;SDS011;61978;52.742;16.962;2022-09-25T04:02:38;32.50;;;24.77;;
73678;SDS011;61978;52.742;16.962;2022-09-25T04:05:05;37.83;;;25.70;;
73678;SDS011;61978;52.742;16.962;2022-09-25T04:07:34;34.20;;;25.12;;
73678;SDS011;61978;52.742;16.962;2022-09-25T04:10:02;37.45;;;26.37;;
73678;SDS011;61978;52.742;16.962;2022-09-25T04:12:31;36.68;;;26.00;;
73678;SDS011;61978;52.742;16.962;2022-09-25T04:14:57;33.53;;;25.68;;
73678;SDS011;61978;52.742;16.962;2022-09-25T04:17:24;37.98;;;26.77;;
73678;SDS011;61978;52.742;16.962;2022-09-25T04:19:51;33.75;;;25.40;;
73678;SDS011;61978;52.742;16.962;2022-09-25T04:22:18;41.73;;;27.02;;
73678;SDS011;61978;52.742;16.962;2022-09-25T04:24:44;45.73;;;29.77;;
73678;SDS011;61978;52.742;16.962;2022-09-25T04:27:14;41.80;;;28.70;;
73678;SDS011;61978;52.742;16.962;2022-09-25T04:29:45;37.85;;;26.50;;
73678;SDS011;61978;52.742;16.962;2022-09-25T04:32:13;36.95;;;26.97;;
73678;SDS011;61978;52.742;16.962;2022-09-25T04:34:59;38.90;;;28.07;;
73678;SDS011;61978;52.742;16.962;2022-09-25T04:37:27;35.28;;;26.02;;
73678;SDS011;61978;52.742;16.962;2022-09-25T04:39:55;42.13;;;28.50;;
73678;SDS011;61978;52.742;16.962;2022-09-25T04:42:22;38.02;;;27.37;;
73678;SDS011;61978;52.742;16.962;2022-09-25T04:44:53;33.70;;;26.45;;
73678;SDS011;61978;52.742;16.962;2022-09-25T04:47:21;37.70;;;27.82;;
73678;SDS011;61978;52.742;16.962;2022-09-25T04:49:48;37.10;;;26.12;;
73678;SDS011;61978;52.742;16.962;2022-09-25T04:52:15;36.80;;;25.97;;
73678;SDS011;61978;52.742;16.962;2022-09-25T04:54:43;37.33;;;27.37;;
73678;SDS011;61978;52.742;16.962;2022-09-25T04:57:18;38.17;;;26.93;;
73678;SDS011;61978;52.742;16.962;2022-09-25T04:59:43;36.03;;;27.13;;
73678;SDS011;61978;52.742;16.962;2022-09-25T05:02:10;40.78;;;27.67;;
73678;SDS011;61978;52.742;16.962;2022-09-25T05:04:37;36.08;;;28.75;;
73678;SDS011;61978;52.742;16.962;2022-09-25T05:07:04;41.45;;;30.45;;
73678;SDS011;61978;52.742;16.962;2022-09-25T05:09:31;42.38;;;28.42;;
73678;SDS011;61978;52.742;16.962;2022-09-25T05:11:58;43.50;;;30.02;;
73678;SDS011;61978;52.742;16.962;2022-09-25T05:14:25;52.88;;;35.83;;
73678;SDS011;61978;52.742;16.962;2022-09-25T05:16:53;57.15;;;34.75;;
73678;SDS011;61978;52.742;16.962;2022-09-25T05:19:20;73.57;;;45.80;;
73678;SDS011;61978;52.742;16.962;2022-09-25T05:21:46;75.45;;;47.27;;
73678;SDS011;61978;52.742;16.962;2022-09-25T05:24:14;61.73;;;43.00;;
73678;SDS011;61978;52.742;16.962;2022-09-25T05:26:40;57.70;;;41.20;;
73678;SDS011;61978;52.742;16.962;2022-09-25T05:29:07;58.38;;;37.70;;
73678;SDS011;61978;52.742;16.962;2022-09-25T05:31:35;62.17;;;39.70;;
73678;SDS011;61978;52.742;16.962;2022-09-25T05:34:02;61.30;;;40.17;;
73678;SDS011;61978;52.742;16.962;2022-09-25T05:36:29;60.58;;;39.18;;
73678;SDS011;61978;52.742;16.962;2022-09-25T05:38:55;55.17;;;36.83;;
73678;SDS011;61978;52.742;16.962;2022-09-25T05:41:22;49.00;;;33.35;;
73678;SDS011;61978;52.742;16.962;2022-09-25T05:43:49;39.92;;;31.27;;
73678;SDS011;61978;52.742;16.962;2022-09-25T05:46:16;39.67;;;30.08;;
73678;SDS011;61978;52.742;16.962;2022-09-25T05:48:42;41.98;;;31.82;;
73678;SDS011;61978;52.742;16.962;2022-09-25T05:51:09;52.08;;;35.35;;
73678;SDS011;61978;52.742;16.962;2022-09-25T05:53:36;41.37;;;32.75;;
73678;SDS011;61978;52.742;16.962;2022-09-25T05:56:03;45.67;;;34.43;;
73678;SDS011;61978;52.742;16.962;2022-09-25T05:58:30;47.38;;;35.25;;
73678;SDS011;61978;52.742;16.962;2022-09-25T06:00:59;48.52;;;34.30;;
73678;SDS011;61978;52.742;16.962;2022-09-25T06:03:28;51.35;;;35.03;;
73678;SDS011;61978;52.742;16.962;2022-09-25T06:05:56;47.00;;;34.98;;
73678;SDS011;61978;52.742;16.962;2022-09-25T06:08:24;40.55;;;31.73;;
73678;SDS011;61978;52.742;16.962;2022-09-25T06:10:55;41.42;;;30.05;;
73678;SDS011;61978;52.742;16.962;2022-09-25T06:13:20;47.70;;;33.05;;
73678;SDS011;61978;52.742;16.962;2022-09-25T06:15:48;41.65;;;30.10;;
73678;SDS011;61978;52.742;16.962;2022-09-25T06:18:20;38.92;;;29.50;;
73678;SDS011;61978;52.742;16.962;2022-09-25T06:20:48;42.27;;;29.70;;
73678;SDS011;61978;52.742;16.962;2022-09-25T06:23:16;38.73;;;29.10;;
73678;SDS011;61978;52.742;16.962;2022-09-25T06:25:43;38.63;;;28.02;;
73678;SDS011;61978;52.742;16.962;2022-09-25T06:28:10;42.17;;;27.77;;
73678;SDS011;61978;52.742;16.962;2022-09-25T06:30:37;35.65;;;28.07;;
73678;SDS011;61978;52.742;16.962;2022-09-25T06:33:05;65.08;;;58.13;;
73678;SDS011;61978;52.742;16.962;2022-09-25T06:35:35;49.45;;;42.62;;
73678;SDS011;61978;52.742;16.962;2022-09-25T06:38:04;41.60;;;32.60;;
73678;SDS011;61978;52.742;16.962;2022-09-25T06:40:31;50.85;;;45.00;;
73678;SDS011;61978;52.742;16.962;2022-09-25T06:43:01;43.10;;;32.93;;
73678;SDS011;61978;52.742;16.962;2022-09-25T06:45:30;40.20;;;30.52;;
73678;SDS011;61978;52.742;16.962;2022-09-25T06:48:08;44.15;;;32.23;;
73678;SDS011;61978;52.742;16.962;2022-09-25T06:50:47;54.35;;;38.42;;
73678;SDS011;61978;52.742;16.962;2022-09-25T06:53:16;71.30;;;63.80;;
73678;SDS011;61978;52.742;16.962;2022-09-25T06:55:44;51.83;;;40.95;;
73678;SDS011;61978;52.742;16.962;2022-09-25T06:58:14;92.25;;;62.38;;
73678;SDS011;61978;52.742;16.962;2022-09-25T07:00:49;45.55;;;35.10;;
73678;SDS011;61978;52.742;16.962;2022-09-25T07:03:18;50.80;;;34.20;;
73678;SDS011;61978;52.742;16.962;2022-09-25T07:06:05;54.75;;;37.55;;
73678;SDS011;61978;52.742;16.962;2022-09-25T07:08:33;57.30;;;41.63;;
73678;SDS011;61978;52.742;16.962;2022-09-25T07:10:59;56.48;;;45.17;;
73678;SDS011;61978;52.742;16.962;2022-09-25T07:13:30;57.95;;;45.45;;
73678;SDS011;61978;52.742;16.962;2022-09-25T07:15:58;56.23;;;45.28;;
73678;SDS011;61978;52.742;16.962;2022-09-25T07:18:27;57.67;;;45.50;;
73678;SDS011;61978;52.742;16.962;2022-09-25T07:21:01;57.73;;;42.93;;
73678;SDS011;61978;52.742;16.962;2022-09-25T07:23:29;53.52;;;39.78;;
73678;SDS011;61978;52.742;16.962;2022-09-25T07:26:04;52.58;;;41.42;;
73678;SDS011;61978;52.742;16.962;2022-09-25T07:28:34;51.02;;;36.70;;
73678;SDS011;61978;52.742;16.962;2022-09-25T07:31:11;47.73;;;35.65;;
73678;SDS011;61978;52.742;16.962;2022-09-25T07:33:39;44.55;;;33.78;;
73678;SDS011;61978;52.742;16.962;2022-09-25T07:36:06;47.40;;;34.73;;
73678;SDS011;61978;52.742;16.962;2022-09-25T07:38:34;47.88;;;34.35;;
73678;SDS011;61978;52.742;16.962;2022-09-25T07:41:02;46.13;;;34.55;;
73678;SDS011;61978;52.742;16.962;2022-09-25T07:43:34;44.48;;;28.42;;
73678;SDS011;61978;52.742;16.962;2022-09-25T07:46:03;49.10;;;28.98;;
73678;SDS011;61978;52.742;16.962;2022-09-25T07:48:30;42.55;;;28.17;;
73678;SDS011;61978;52.742;16.962;2022-09-25T07:50:58;47.05;;;27.87;;
73678;SDS011;61978;52.742;16.962;2022-09-25T07:53:26;41.48;;;28.15;;
73678;SDS011;61978;52.742;16.962;2022-09-25T07:55:57;39.27;;;27.90;;
73678;SDS011;61978;52.742;16.962;2022-09-25T07:58:25;48.98;;;27.98;;
73678;SDS011;61978;52.742;16.962;2022-09-25T08:00:53;41.90;;;28.10;;
73678;SDS011;61978;52.742;16.962;2022-09-25T08:03:25;39.45;;;29.42;;
73678;SDS011;61978;52.742;16.962;2022-09-25T08:05:58;46.73;;;30.75;;
73678;SDS011;61978;52.742;16.962;2022-09-25T08:08:26;50.45;;;31.90;;
73678;SDS011;61978;52.742;16.962;2022-09-25T08:10:58;51.63;;;32.70;;
73678;SDS011;61978;52.742;16.962;2022-09-25T08:13:27;45.05;;;33.75;;
73678;SDS011;61978;52.742;16.962;2022-09-25T08:15:55;49.73;;;34.90;;
73678;SDS011;61978;52.742;16.962;2022-09-25T08:18:22;42.10;;;29.67;;
73678;SDS011;61978;52.742;16.962;2022-09-25T08:20:48;35.83;;;26.48;;
73678;SDS011;61978;52.742;16.962;2022-09-25T08:23:15;33.60;;;25.17;;
73678;SDS011;61978;52.742;16.962;2022-09-25T08:25:46;35.33;;;24.80;;
73678;SDS011;61978;52.742;16.962;2022-09-25T08:28:14;32.38;;;22.98;;
73678;SDS011;61978;52.742;16.962;2022-09-25T08:30:43;33.23;;;20.95;;
73678;SDS011;61978;52.742;16.962;2022-09-25T08:33:09;34.03;;;23.22;;
73678;SDS011;61978;52.742;16.962;2022-09-25T08:35:39;40.85;;;25.37;;
73678;SDS011;61978;52.742;16.962;2022-09-25T08:38:07;34.70;;;23.83;;
73678;SDS011;61978;52.742;16.962;2022-09-25T08:40:38;32.33;;;22.27;;
73678;SDS011;61978;52.742;16.962;2022-09-25T08:43:08;32.50;;;21.20;;
73678;SDS011;61978;52.742;16.962;2022-09-25T08:45:38;37.85;;;24.72;;
73678;SDS011;61978;52.742;16.962;2022-09-25T08:48:27;43.35;;;25.82;;
73678;SDS011;61978;52.742;16.962;2022-09-25T08:51:13;46.08;;;27.15;;
73678;SDS011;61978;52.742;16.962;2022-09-25T08:53:39;36.68;;;23.92;;
73678;SDS011;61978;52.742;16.962;2022-09-25T08:56:08;34.53;;;21.48;;
73678;SDS011;61978;52.742;16.962;2022-09-25T08:58:53;32.78;;;21.55;;
73678;SDS011;61978;52.742;16.962;2022-09-25T09:01:26;27.82;;;19.60;;
73678;SDS011;61978;52.742;16.962;2022-09-25T09:06:34;32.15;;;18.77;;
73678;SDS011;61978;52.742;16.962;2022-09-25T09:09:14;33.48;;;23.27;;
73678;SDS011;61978;52.742;16.962;2022-09-25T09:11:43;39.75;;;24.95;;
73678;SDS011;61978;52.742;16.962;2022-09-25T09:14:14;40.92;;;26.27;;
73678;SDS011;61978;52.742;16.962;2022-09-25T09:17:04;41.65;;;24.02;;
73678;SDS011;61978;52.742;16.962;2022-09-25T09:19:26;41.37;;;24.23;;
73678;SDS011;61978;52.742;16.962;2022-09-25T09:21:56;39.13;;;26.27;;
73678;SDS011;61978;52.742;16.962;2022-09-25T09:24:30;37.20;;;25.50;;
73678;SDS011;61978;52.742;16.962;2022-09-25T09:32:44;24.63;;;17.75;;
73678;SDS011;61978;52.742;16.962;2022-09-25T09:38:12;24.05;;;17.32;;
73678;SDS011;61978;52.742;16.962;2022-09-25T09:46:44;25.37;;;18.85;;
73678;SDS011;61978;52.742;16.962;2022-09-25T09:52:11;22.80;;;15.00;;
73678;SDS011;61978;52.742;16.962;2022-09-25T09:54:45;23.67;;;16.90;;
73678;SDS011;61978;52.742;16.962;2022-09-25T10:00:14;18.40;;;14.87;;
73678;SDS011;61978;52.742;16.962;2022-09-25T10:02:43;16.57;;;12.90;;
73678;SDS011;61978;52.742;16.962;2022-09-25T10:05:18;17.77;;;12.13;;
73678;SDS011;61978;52.742;16.962;2022-09-25T10:08:15;15.20;;;12.33;;
73678;SDS011;61978;52.742;16.962;2022-09-25T10:10:53;18.45;;;13.40;;
73678;SDS011;61978;52.742;16.962;2022-09-25T10:19:12;16.80;;;12.30;;
73678;SDS011;61978;52.742;16.962;2022-09-25T10:21:51;17.77;;;13.67;;
73678;SDS011;61978;52.742;16.962;2022-09-25T10:27:23;16.30;;;11.90;;
73678;SDS011;61978;52.742;16.962;2022-09-25T10:30:02;20.43;;;13.72;;
73678;SDS011;61978;52.742;16.962;2022-09-25T10:35:42;21.85;;;17.23;;
73678;SDS011;61978;52.742;16.962;2022-09-25T10:38:20;22.98;;;16.12;;
73678;SDS011;61978;52.742;16.962;2022-09-25T10:41:07;21.93;;;13.35;;
73678;SDS011;61978;52.742;16.962;2022-09-25T10:43:54;21.05;;;14.13;;
73678;SDS011;61978;52.742;16.962;2022-09-25T10:46:27;23.87;;;14.50;;
73678;SDS011;61978;52.742;16.962;2022-09-25T10:49:22;23.85;;;16.12;;
73678;SDS011;61978;52.742;16.962;2022-09-25T10:52:09;52.20;;;24.87;;
73678;SDS011;61978;52.742;16.962;2022-09-25T10:54:38;28.42;;;17.75;;
73678;SDS011;61978;52.742;16.962;2022-09-25T10:59:50;21.95;;;15.80;;
73678;SDS011;61978;52.742;16.962;2022-09-25T11:02:34;19.32;;;12.85;;
73678;SDS011;61978;52.742;16.962;2022-09-25T11:04:58;20.85;;;13.50;;
73678;SDS011;61978;52.742;16.962;2022-09-25T11:07:28;18.73;;;13.30;;
73678;SDS011;61978;52.742;16.962;2022-09-25T11:09:55;18.60;;;12.35;;
73678;SDS011;61978;52.742;16.962;2022-09-25T11:12:25;23.00;;;13.50;;
73678;SDS011;61978;52.742;16.962;2022-09-25T11:15:00;22.82;;;15.60;;
73678;SDS011;61978;52.742;16.962;2022-09-25T11:17:40;21.42;;;14.73;;
73678;SDS011;61978;52.742;16.962;2022-09-25T11:25:25;20.05;;;13.85;;
73678;SDS011;61978;52.742;16.962;2022-09-25T11:27:54;24.47;;;15.53;;
73678;SDS011;61978;52.742;16.962;2022-09-25T11:30:23;23.50;;;16.80;;
73678;SDS011;61978;52.742;16.962;2022-09-25T11:32:59;19.50;;;14.53;;
73678;SDS011;61978;52.742;16.962;2022-09-25T11:47:26;20.10;;;10.93;;
73678;SDS011;61978;52.742;16.962;2022-09-25T11:50:02;14.55;;;11.45;;
73678;SDS011;61978;52.742;16.962;2022-09-25T11:52:37;18.20;;;12.78;;
73678;SDS011;61978;52.742;16.962;2022-09-25T12:00:37;13.43;;;10.43;;
73678;SDS011;61978;52.742;16.962;2022-09-25T12:19:44;12.30;;;7.85;;
73678;SDS011;61978;52.742;16.962;2022-09-25T12:25:20;9.83;;;6.70;;
73678;SDS011;61978;52.742;16.962;2022-09-25T12:32:51;7.22;;;4.58;;
73678;SDS011;61978;52.742;16.962;2022-09-25T12:38:20;31.15;;;15.63;;
73678;SDS011;61978;52.742;16.962;2022-09-25T12:41:11;6.15;;;4.25;;
73678;SDS011;61978;52.742;16.962;2022-09-25T12:43:54;6.28;;;4.83;;
73678;SDS011;61978;52.742;16.962;2022-09-25T12:52:00;6.35;;;4.05;;
73678;SDS011;61978;52.742;16.962;2022-09-25T12:54:40;8.78;;;4.35;;
73678;SDS011;61978;52.742;16.962;2022-09-25T12:57:11;4.95;;;3.87;;
73678;SDS011;61978;52.742;16.962;2022-09-25T12:59:48;5.42;;;4.10;;
73678;SDS011;61978;52.742;16.962;2022-09-25T13:02:34;8.03;;;4.45;;
73678;SDS011;61978;52.742;16.962;2022-09-25T13:05:14;6.10;;;4.22;;
73678;SDS011;61978;52.742;16.962;2022-09-25T13:07:46;6.03;;;4.28;;
73678;SDS011;61978;52.742;16.962;2022-09-25T13:12:49;6.42;;;4.28;;
73678;SDS011;61978;52.742;16.962;2022-09-25T13:15:24;8.40;;;4.20;;
73678;SDS011;61978;52.742;16.962;2022-09-25T13:18:00;4.37;;;3.75;;
73678;SDS011;61978;52.742;16.962;2022-09-25T13:25:57;7.42;;;5.10;;
73678;SDS011;61978;52.742;16.962;2022-09-25T13:28:28;25.45;;;10.08;;
73678;SDS011;61978;52.742;16.962;2022-09-25T13:33:52;8.50;;;4.65;;
73678;SDS011;61978;52.742;16.962;2022-09-25T13:36:13;7.15;;;4.60;;
73678;SDS011;61978;52.742;16.962;2022-09-25T13:38:43;10.03;;;4.25;;
73678;SDS011;61978;52.742;16.962;2022-09-25T13:41:29;6.80;;;4.08;;
73678;SDS011;61978;52.742;16.962;2022-09-25T13:55:15;9.60;;;7.92;;
73678;SDS011;61978;52.742;16.962;2022-09-25T14:00:24;5.67;;;4.42;;
73678;SDS011;61978;52.742;16.962;2022-09-25T14:02:55;6.25;;;4.67;;
73678;SDS011;61978;52.742;16.962;2022-09-25T14:05:25;8.48;;;4.22;;
73678;SDS011;61978;52.742;16.962;2022-09-25T14:10:26;5.03;;;4.00;;
73678;SDS011;61978;52.742;16.962;2022-09-25T14:12:53;7.03;;;4.08;;
73678;SDS011;61978;52.742;16.962;2022-09-25T14:15:23;6.37;;;4.30;;
73678;SDS011;61978;52.742;16.962;2022-09-25T14:18:00;5.50;;;4.28;;
73678;SDS011;61978;52.742;16.962;2022-09-25T14:20:34;7.80;;;4.33;;
73678;SDS011;61978;52.742;16.962;2022-09-25T14:23:11;4.75;;;4.22;;
73678;SDS011;61978;52.742;16.962;2022-09-25T14:28:30;6.12;;;3.98;;
73678;SDS011;61978;52.742;16.962;2022-09-25T14:33:48;5.67;;;3.85;;
73678;SDS011;61978;52.742;16.962;2022-09-25T14:41:38;5.05;;;3.42;;
73678;SDS011;61978;52.742;16.962;2022-09-25T14:44:31;4.35;;;3.95;;
73678;SDS011;61978;52.742;16.962;2022-09-25T14:46:47;5.08;;;4.05;;
73678;SDS011;61978;52.742;16.962;2022-09-25T14:49:23;6.35;;;3.40;;
73678;SDS011;61978;52.742;16.962;2022-09-25T14:51:59;4.45;;;3.42;;
73678;SDS011;61978;52.742;16.962;2022-09-25T14:54:29;8.88;;;4.05;;
73678;SDS011;61978;52.742;16.962;2022-09-25T14:56:59;4.97;;;3.95;;
73678;SDS011;61978;52.742;16.962;2022-09-25T14:59:32;6.78;;;3.70;;
73678;SDS011;61978;52.742;16.962;2022-09-25T15:02:20;6.40;;;4.10;;
73678;SDS011;61978;52.742;16.962;2022-09-25T15:05:14;6.17;;;4.15;;
73678;SDS011;61978;52.742;16.962;2022-09-25T15:07:40;5.97;;;3.72;;
73678;SDS011;61978;52.742;16.962;2022-09-25T15:15:46;10.23;;;8.63;;
73678;SDS011;61978;52.742;16.962;2022-09-25T15:18:30;7.50;;;4.22;;
73678;SDS011;61978;52.742;16.962;2022-09-25T15:21:00;5.10;;;3.77;;
73678;SDS011;61978;52.742;16.962;2022-09-25T15:23:27;6.22;;;3.95;;
73678;SDS011;61978;52.742;16.962;2022-09-25T15:25:55;7.85;;;4.05;;
73678;SDS011;61978;52.742;16.962;2022-09-25T15:28:24;4.92;;;4.05;;
73678;SDS011;61978;52.742;16.962;2022-09-25T15:30:58;5.00;;;3.50;;
73678;SDS011;61978;52.742;16.962;2022-09-25T15:33:25;7.25;;;4.05;;
73678;SDS011;61978;52.742;16.962;2022-09-25T15:38:28;16.25;;;13.15;;
73678;SDS011;61978;52.742;16.962;2022-09-25T15:40:57;10.70;;;6.70;;
73678;SDS011;61978;52.742;16.962;2022-09-25T15:43:24;5.37;;;4.25;;
73678;SDS011;61978;52.742;16.962;2022-09-25T15:51:00;8.08;;;4.37;;
73678;SDS011;61978;52.742;16.962;2022-09-25T15:53:36;7.22;;;5.47;;
73678;SDS011;61978;52.742;16.962;2022-09-25T15:58:42;233.97;;;123.50;;
73678;SDS011;61978;52.742;16.962;2022-09-25T16:01:17;172.45;;;71.57;;
73678;SDS011;61978;52.742;16.962;2022-09-25T16:04:09;179.90;;;61.92;;
73678;SDS011;61978;52.742;16.962;2022-09-25T16:06:59;159.50;;;61.30;;
73678;SDS011;61978;52.742;16.962;2022-09-25T16:09:33;61.65;;;30.23;;
73678;SDS011;61978;52.742;16.962;2022-09-25T16:14:48;34.75;;;16.85;;
73678;SDS011;61978;52.742;16.962;2022-09-25T16:17:38;23.27;;;13.40;;
73678;SDS011;61978;52.742;16.962;2022-09-25T16:19:59;38.48;;;23.55;;
73678;SDS011;61978;52.742;16.962;2022-09-25T16:22:30;48.83;;;28.20;;
73678;SDS011;61978;52.742;16.962;2022-09-25T16:24:58;45.75;;;23.85;;
73678;SDS011;61978;52.742;16.962;2022-09-25T16:27:27;63.60;;;34.95;;
73678;SDS011;61978;52.742;16.962;2022-09-25T16:29:58;85.07;;;42.53;;
73678;SDS011;61978;52.742;16.962;2022-09-25T16:32:27;74.30;;;54.00;;
73678;SDS011;61978;52.742;16.962;2022-09-25T16:35:01;103.30;;;64.03;;
73678;SDS011;61978;52.742;16.962;2022-09-25T16:37:33;66.97;;;46.73;;
73678;SDS011;61978;52.742;16.962;2022-09-25T16:42:48;50.33;;;32.90;;
73678;SDS011;61978;52.742;16.962;2022-09-25T16:45:23;45.20;;;32.88;;
73678;SDS011;61978;52.742;16.962;2022-09-25T16:47:57;51.05;;;36.58;;
73678;SDS011;61978;52.742;16.962;2022-09-25T16:50:28;63.50;;;42.55;;
73678;SDS011;61978;52.742;16.962;2022-09-25T16:52:58;61.30;;;41.08;;
73678;SDS011;61978;52.742;16.962;2022-09-25T16:55:27;59.25;;;40.23;;
73678;SDS011;61978;52.742;16.962;2022-09-25T16:57:54;61.98;;;39.65;;
73678;SDS011;61978;52.742;16.962;2022-09-25T17:00:23;66.47;;;43.38;;
73678;SDS011;61978;52.742;16.962;2022-09-25T17:02:51;69.45;;;43.80;;
73678;SDS011;61978;52.742;16.962;2022-09-25T17:05:23;60.23;;;38.63;;
73678;SDS011;61978;52.742;16.962;2022-09-25T17:07:52;56.50;;;40.73;;
73678;SDS011;61978;52.742;16.962;2022-09-25T17:10:24;67.15;;;41.20;;
73678;SDS011;61978;52.742;16.962;2022-09-25T17:12:55;52.23;;;33.48;;
73678;SDS011;61978;52.742;16.962;2022-09-25T17:15:25;51.05;;;31.75;;
73678;SDS011;61978;52.742;16.962;2022-09-25T17:17:59;46.23;;;28.38;;
73678;SDS011;61978;52.742;16.962;2022-09-25T17:20:28;47.30;;;28.52;;
73678;SDS011;61978;52.742;16.962;2022-09-25T17:23:02;44.18;;;30.02;;
73678;SDS011;61978;52.742;16.962;2022-09-25T17:25:33;53.68;;;31.82;;
73678;SDS011;61978;52.742;16.962;2022-09-25T17:28:12;47.43;;;33.15;;
73678;SDS011;61978;52.742;16.962;2022-09-25T17:30:39;47.25;;;29.92;;
73678;SDS011;61978;52.742;16.962;2022-09-25T17:33:20;41.73;;;27.13;;
73678;SDS011;61978;52.742;16.962;2022-09-25T17:36:09;40.30;;;29.00;;
73678;SDS011;61978;52.742;16.962;2022-09-25T17:38:30;40.88;;;27.15;;